sensor_id;sensor_type;location;lat;lon;timestamp;P1;durP1;ratioP1;P2;durP2;ratioP2
23614;SDS011;11985;49.404;7.734;2024-01-16T00:04:57;12.90;;;4.70;;
23614;SDS011;11985;49.404;7.734;2024-01-16T00:09:58;13.73;;;4.80;;
23614;SDS011;11985;49.404;7.734;2024-01-16T00:15:00;13.35;;;5.35;;
23614;SDS011;11985;49.404;7.734;2024-01-16T00:20:04;11.80;;;5.55;;
23614;SDS011;11985;49.404;7.734;2024-01-16T00:25:07;13.80;;;5.82;;
23614;SDS011;11985;49.404;7.734;2024-01-16T00:30:09;9.88;;;5.35;;
23614;SDS011;11985;49.404;7.734;2024-01-16T00:35:13;12.23;;;5.50;;
23614;SDS011;11985;49.404;7.734;2024-01-16T00:40:14;12.35;;;4.80;;
23614;SDS011;11985;49.404;7.734;2024-01-16T00:45:19;15.48;;;5.20;;
23614;SDS011;11985;49.404;7.734;2024-01-16T00:50:22;13.57;;;4.88;;
23614;SDS011;11985;49.404;7.734;2024-01-16T00:55:25;11.80;;;3.87;;
23614;SDS011;11985;49.404;7.734;2024-01-16T01:00:29;14.93;;;5.20;;
23614;SDS011;11985;49.404;7.734;2024-01-16T01:05:33;10.57;;;5.20;;
23614;SDS011;11985;49.404;7.734;2024-01-16T01:10:34;16.77;;;5.60;;
23614;SDS011;11985;49.404;7.734;2024-01-16T01:15:36;16.38;;;5.32;;
23614;SDS011;11985;49.404;7.734;2024-01-16T01:20:41;15.75;;;5.45;;
23614;SDS011;11985;49.404;7.734;2024-01-16T01:25:43;12.77;;;6.03;;
23614;SDS011;11985;49.404;7.734;2024-01-16T01:30:45;16.33;;;6.05;;
23614;SDS011;11985;49.404;7.734;2024-01-16T01:35:48;12.05;;;5.93;;
23614;SDS011;11985;49.404;7.734;2024-01-16T01:40:49;15.80;;;5.65;;
23614;SDS011;11985;49.404;7.734;2024-01-16T01:45:56;9.32;;;5.30;;
23614;SDS011;11985;49.404;7.734;2024-01-16T01:51:12;14.27;;;5.65;;
23614;SDS011;11985;49.404;7.734;2024-01-16T01:56:15;11.70;;;5.90;;
23614;SDS011;11985;49.404;7.734;2024-01-16T02:01:19;17.88;;;6.15;;
23614;SDS011;11985;49.404;7.734;2024-01-16T02:06:23;12.45;;;6.25;;
23614;SDS011;11985;49.404;7.734;2024-01-16T02:11:25;12.77;;;5.80;;
23614;SDS011;11985;49.404;7.734;2024-01-16T02:16:27;14.77;;;5.90;;
23614;SDS011;11985;49.404;7.734;2024-01-16T02:21:39;20.15;;;6.28;;
23614;SDS011;11985;49.404;7.734;2024-01-16T02:26:44;13.30;;;6.20;;
23614;SDS011;11985;49.404;7.734;2024-01-16T02:31:45;15.70;;;5.97;;
23614;SDS011;11985;49.404;7.734;2024-01-16T02:36:47;15.43;;;5.22;;
23614;SDS011;11985;49.404;7.734;2024-01-16T02:41:50;20.15;;;6.00;;
23614;SDS011;11985;49.404;7.734;2024-01-16T02:46:52;14.02;;;5.57;;
23614;SDS011;11985;49.404;7.734;2024-01-16T02:51:53;16.65;;;7.03;;
23614;SDS011;11985;49.404;7.734;2024-01-16T02:56:56;17.10;;;5.68;;
23614;SDS011;11985;49.404;7.734;2024-01-16T03:01:58;12.52;;;6.05;;
23614;SDS011;11985;49.404;7.734;2024-01-16T03:06:59;13.98;;;5.63;;
23614;SDS011;11985;49.404;7.734;2024-01-16T03:12:02;14.77;;;6.03;;
23614;SDS011;11985;49.404;7.734;2024-01-16T03:17:04;16.85;;;6.20;;
23614;SDS011;11985;49.404;7.734;2024-01-16T03:22:06;11.25;;;6.18;;
23614;SDS011;11985;49.404;7.734;2024-01-16T03:27:09;14.98;;;6.15;;
23614;SDS011;11985;49.404;7.734;2024-01-16T03:32:10;14.60;;;6.03;;
23614;SDS011;11985;49.404;7.734;2024-01-16T03:37:12;16.42;;;6.00;;
23614;SDS011;11985;49.404;7.734;2024-01-16T03:42:15;19.48;;;6.20;;
23614;SDS011;11985;49.404;7.734;2024-01-16T03:47:17;13.90;;;5.70;;
23614;SDS011;11985;49.404;7.734;2024-01-16T03:52:18;15.55;;;6.32;;
23614;SDS011;11985;49.404;7.734;2024-01-16T03:57:21;16.10;;;6.05;;
23614;SDS011;11985;49.404;7.734;2024-01-16T04:02:24;13.80;;;6.03;;
23614;SDS011;11985;49.404;7.734;2024-01-16T04:07:26;13.95;;;5.85;;
23614;SDS011;11985;49.404;7.734;2024-01-16T04:12:29;14.98;;;6.18;;
23614;SDS011;11985;49.404;7.734;2024-01-16T04:17:30;12.07;;;6.00;;
23614;SDS011;11985;49.404;7.734;2024-01-16T04:22:32;17.17;;;6.63;;
23614;SDS011;11985;49.404;7.734;2024-01-16T04:27:35;19.08;;;6.22;;
23614;SDS011;11985;49.404;7.734;2024-01-16T04:32:36;14.77;;;5.82;;
23614;SDS011;11985;49.404;7.734;2024-01-16T04:37:38;22.30;;;6.78;;
23614;SDS011;11985;49.404;7.734;2024-01-16T04:42:41;16.73;;;5.82;;
23614;SDS011;11985;49.404;7.734;2024-01-16T04:47:43;16.10;;;6.43;;
23614;SDS011;11985;49.404;7.734;2024-01-16T04:52:44;18.17;;;5.70;;
23614;SDS011;11985;49.404;7.734;2024-01-16T04:57:47;16.08;;;6.45;;
23614;SDS011;11985;49.404;7.734;2024-01-16T05:02:49;18.15;;;5.70;;
23614;SDS011;11985;49.404;7.734;2024-01-16T05:07:51;19.17;;;6.63;;
23614;SDS011;11985;49.404;7.734;2024-01-16T05:12:55;16.40;;;6.68;;
23614;SDS011;11985;49.404;7.734;2024-01-16T05:17:56;20.08;;;6.72;;
23614;SDS011;11985;49.404;7.734;2024-01-16T05:23:00;23.97;;;9.50;;
23614;SDS011;11985;49.404;7.734;2024-01-16T05:28:03;31.83;;;10.88;;
23614;SDS011;11985;49.404;7.734;2024-01-16T05:33:05;20.90;;;8.30;;
23614;SDS011;11985;49.404;7.734;2024-01-16T05:38:11;20.83;;;8.00;;
23614;SDS011;11985;49.404;7.734;2024-01-16T05:43:14;16.48;;;6.53;;
23614;SDS011;11985;49.404;7.734;2024-01-16T05:48:16;19.10;;;6.35;;
23614;SDS011;11985;49.404;7.734;2024-01-16T05:53:17;15.90;;;6.10;;
23614;SDS011;11985;49.404;7.734;2024-01-16T05:58:20;18.08;;;6.75;;
23614;SDS011;11985;49.404;7.734;2024-01-16T06:03:22;19.45;;;7.30;;
23614;SDS011;11985;49.404;7.734;2024-01-16T06:08:24;11.75;;;5.85;;
23614;SDS011;11985;49.404;7.734;2024-01-16T06:13:27;16.65;;;6.45;;
23614;SDS011;11985;49.404;7.734;2024-01-16T06:23:31;21.70;;;6.25;;
23614;SDS011;11985;49.404;7.734;2024-01-16T06:28:34;14.98;;;6.75;;
23614;SDS011;11985;49.404;7.734;2024-01-16T06:33:38;18.25;;;6.45;;
23614;SDS011;11985;49.404;7.734;2024-01-16T06:38:40;14.57;;;6.30;;
23614;SDS011;11985;49.404;7.734;2024-01-16T06:43:43;14.52;;;6.70;;
23614;SDS011;11985;49.404;7.734;2024-01-16T06:48:44;14.85;;;5.47;;
23614;SDS011;11985;49.404;7.734;2024-01-16T06:53:46;19.75;;;11.65;;
23614;SDS011;11985;49.404;7.734;2024-01-16T06:58:49;21.85;;;7.63;;
23614;SDS011;11985;49.404;7.734;2024-01-16T07:03:50;15.02;;;5.68;;
23614;SDS011;11985;49.404;7.734;2024-01-16T07:08:52;20.15;;;6.57;;
23614;SDS011;11985;49.404;7.734;2024-01-16T07:13:59;14.95;;;6.22;;
23614;SDS011;11985;49.404;7.734;2024-01-16T07:19:01;10.82;;;5.47;;
23614;SDS011;11985;49.404;7.734;2024-01-16T07:24:03;16.80;;;5.15;;
23614;SDS011;11985;49.404;7.734;2024-01-16T07:29:06;13.43;;;6.03;;
23614;SDS011;11985;49.404;7.734;2024-01-16T07:34:08;18.67;;;6.40;;
23614;SDS011;11985;49.404;7.734;2024-01-16T07:39:09;16.65;;;6.05;;
23614;SDS011;11985;49.404;7.734;2024-01-16T07:44:12;13.98;;;6.53;;
23614;SDS011;11985;49.404;7.734;2024-01-16T07:49:14;19.02;;;6.57;;
23614;SDS011;11985;49.404;7.734;2024-01-16T07:54:16;13.55;;;6.18;;
23614;SDS011;11985;49.404;7.734;2024-01-16T07:59:19;16.83;;;6.95;;
23614;SDS011;11985;49.404;7.734;2024-01-16T08:04:20;16.40;;;7.35;;
23614;SDS011;11985;49.404;7.734;2024-01-16T08:09:22;21.65;;;7.93;;
23614;SDS011;11985;49.404;7.734;2024-01-16T08:14:25;25.23;;;9.02;;
23614;SDS011;11985;49.404;7.734;2024-01-16T08:19:26;19.83;;;7.75;;
23614;SDS011;11985;49.404;7.734;2024-01-16T08:24:28;17.45;;;8.02;;
23614;SDS011;11985;49.404;7.734;2024-01-16T08:29:31;16.83;;;8.00;;
23614;SDS011;11985;49.404;7.734;2024-01-16T08:34:32;25.52;;;9.38;;
23614;SDS011;11985;49.404;7.734;2024-01-16T08:39:34;20.83;;;9.20;;
23614;SDS011;11985;49.404;7.734;2024-01-16T08:44:37;25.85;;;9.30;;
23614;SDS011;11985;49.404;7.734;2024-01-16T08:49:39;24.27;;;9.00;;
23614;SDS011;11985;49.404;7.734;2024-01-16T08:54:40;36.05;;;11.70;;
23614;SDS011;11985;49.404;7.734;2024-01-16T08:59:43;26.23;;;10.80;;
23614;SDS011;11985;49.404;7.734;2024-01-16T09:04:45;21.25;;;9.50;;
23614;SDS011;11985;49.404;7.734;2024-01-16T09:09:47;22.00;;;9.15;;
23614;SDS011;11985;49.404;7.734;2024-01-16T09:14:50;18.60;;;9.05;;
23614;SDS011;11985;49.404;7.734;2024-01-16T09:19:52;18.83;;;8.77;;
23614;SDS011;11985;49.404;7.734;2024-01-16T09:24:53;23.70;;;9.43;;
23614;SDS011;11985;49.404;7.734;2024-01-16T09:29:56;20.95;;;9.60;;
23614;SDS011;11985;49.404;7.734;2024-01-16T09:34:58;27.13;;;9.30;;
23614;SDS011;11985;49.404;7.734;2024-01-16T09:45:07;23.25;;;8.35;;
23614;SDS011;11985;49.404;7.734;2024-01-16T09:50:10;17.40;;;7.63;;
23614;SDS011;11985;49.404;7.734;2024-01-16T09:55:12;24.17;;;8.88;;
23614;SDS011;11985;49.404;7.734;2024-01-16T10:00:15;21.02;;;8.95;;
23614;SDS011;11985;49.404;7.734;2024-01-16T10:05:18;24.77;;;9.80;;
23614;SDS011;11985;49.404;7.734;2024-01-16T10:10:20;19.02;;;8.07;;
23614;SDS011;11985;49.404;7.734;2024-01-16T10:15:29;29.92;;;9.05;;
23614;SDS011;11985;49.404;7.734;2024-01-16T10:20:32;23.40;;;8.35;;
23614;SDS011;11985;49.404;7.734;2024-01-16T10:25:36;23.87;;;9.30;;
23614;SDS011;11985;49.404;7.734;2024-01-16T10:30:39;23.40;;;9.45;;
23614;SDS011;11985;49.404;7.734;2024-01-16T10:35:41;21.67;;;8.15;;
23614;SDS011;11985;49.404;7.734;2024-01-16T10:40:43;20.20;;;8.05;;
23614;SDS011;11985;49.404;7.734;2024-01-16T10:45:46;18.30;;;7.57;;
23614;SDS011;11985;49.404;7.734;2024-01-16T10:50:47;16.58;;;7.60;;
23614;SDS011;11985;49.404;7.734;2024-01-16T10:55:52;16.75;;;8.07;;
23614;SDS011;11985;49.404;7.734;2024-01-16T11:01:01;20.00;;;7.97;;
23614;SDS011;11985;49.404;7.734;2024-01-16T11:06:04;20.52;;;7.20;;
23614;SDS011;11985;49.404;7.734;2024-01-16T11:11:07;18.63;;;7.45;;
23614;SDS011;11985;49.404;7.734;2024-01-16T11:16:11;20.98;;;8.52;;
23614;SDS011;11985;49.404;7.734;2024-01-16T11:21:13;19.57;;;8.13;;
23614;SDS011;11985;49.404;7.734;2024-01-16T11:26:24;20.17;;;8.90;;
23614;SDS011;11985;49.404;7.734;2024-01-16T11:31:31;19.02;;;8.30;;
23614;SDS011;11985;49.404;7.734;2024-01-16T11:36:42;21.00;;;8.10;;
23614;SDS011;11985;49.404;7.734;2024-01-16T11:52:03;17.77;;;7.57;;
23614;SDS011;11985;49.404;7.734;2024-01-16T11:57:22;20.17;;;7.25;;
23614;SDS011;11985;49.404;7.734;2024-01-16T12:02:41;21.13;;;6.72;;
23614;SDS011;11985;49.404;7.734;2024-01-16T12:07:51;18.75;;;6.78;;
23614;SDS011;11985;49.404;7.734;2024-01-16T12:12:56;21.88;;;7.70;;
23614;SDS011;11985;49.404;7.734;2024-01-16T12:18:01;14.05;;;5.75;;
23614;SDS011;11985;49.404;7.734;2024-01-16T12:23:04;16.17;;;5.07;;
23614;SDS011;11985;49.404;7.734;2024-01-16T12:28:07;13.48;;;4.53;;
23614;SDS011;11985;49.404;7.734;2024-01-16T12:33:12;10.73;;;4.53;;
23614;SDS011;11985;49.404;7.734;2024-01-16T12:38:15;11.48;;;4.35;;
23614;SDS011;11985;49.404;7.734;2024-01-16T12:43:18;13.48;;;4.45;;
23614;SDS011;11985;49.404;7.734;2024-01-16T12:48:23;13.25;;;4.22;;
23614;SDS011;11985;49.404;7.734;2024-01-16T12:53:25;11.25;;;4.63;;
23614;SDS011;11985;49.404;7.734;2024-01-16T12:58:31;11.75;;;4.53;;
23614;SDS011;11985;49.404;7.734;2024-01-16T13:03:35;7.68;;;3.30;;
23614;SDS011;11985;49.404;7.734;2024-01-16T13:08:37;14.98;;;3.60;;
23614;SDS011;11985;49.404;7.734;2024-01-16T13:13:39;14.65;;;3.30;;
23614;SDS011;11985;49.404;7.734;2024-01-16T13:18:42;10.50;;;3.53;;
23614;SDS011;11985;49.404;7.734;2024-01-16T13:23:44;13.32;;;4.03;;
23614;SDS011;11985;49.404;7.734;2024-01-16T13:28:48;15.00;;;3.83;;
23614;SDS011;11985;49.404;7.734;2024-01-16T13:33:52;9.93;;;4.25;;
23614;SDS011;11985;49.404;7.734;2024-01-16T13:38:53;7.40;;;3.75;;
23614;SDS011;11985;49.404;7.734;2024-01-16T13:43:55;6.80;;;3.17;;
23614;SDS011;11985;49.404;7.734;2024-01-16T13:49:01;7.28;;;3.10;;
23614;SDS011;11985;49.404;7.734;2024-01-16T13:54:02;9.73;;;3.15;;
23614;SDS011;11985;49.404;7.734;2024-01-16T13:59:04;7.85;;;2.85;;
23614;SDS011;11985;49.404;7.734;2024-01-16T14:04:10;6.57;;;2.47;;
23614;SDS011;11985;49.404;7.734;2024-01-16T14:09:12;8.90;;;3.25;;
23614;SDS011;11985;49.404;7.734;2024-01-16T14:14:15;5.88;;;3.20;;
23614;SDS011;11985;49.404;7.734;2024-01-16T14:19:18;10.75;;;3.00;;
23614;SDS011;11985;49.404;7.734;2024-01-16T14:24:19;7.25;;;3.05;;
23614;SDS011;11985;49.404;7.734;2024-01-16T14:29:21;8.23;;;2.90;;
23614;SDS011;11985;49.404;7.734;2024-01-16T14:34:28;12.45;;;3.10;;
23614;SDS011;11985;49.404;7.734;2024-01-16T14:39:32;13.18;;;4.88;;
23614;SDS011;11985;49.404;7.734;2024-01-16T14:44:36;11.38;;;3.83;;
23614;SDS011;11985;49.404;7.734;2024-01-16T14:49:39;10.52;;;3.28;;
23614;SDS011;11985;49.404;7.734;2024-01-16T14:54:41;7.10;;;3.17;;
23614;SDS011;11985;49.404;7.734;2024-01-16T14:59:42;7.82;;;3.15;;
23614;SDS011;11985;49.404;7.734;2024-01-16T15:04:46;10.82;;;4.50;;
23614;SDS011;11985;49.404;7.734;2024-01-16T15:09:48;9.00;;;4.20;;
23614;SDS011;11985;49.404;7.734;2024-01-16T15:14:50;12.73;;;3.83;;
23614;SDS011;11985;49.404;7.734;2024-01-16T15:19:53;15.48;;;3.90;;
23614;SDS011;11985;49.404;7.734;2024-01-16T15:24:55;12.57;;;4.57;;
23614;SDS011;11985;49.404;7.734;2024-01-16T15:29:57;14.13;;;6.18;;
23614;SDS011;11985;49.404;7.734;2024-01-16T15:35:00;14.93;;;4.82;;
23614;SDS011;11985;49.404;7.734;2024-01-16T15:40:02;13.15;;;5.22;;
23614;SDS011;11985;49.404;7.734;2024-01-16T15:45:07;11.45;;;5.38;;
23614;SDS011;11985;49.404;7.734;2024-01-16T15:50:12;14.52;;;5.50;;
23614;SDS011;11985;49.404;7.734;2024-01-16T15:55:14;14.98;;;4.60;;
23614;SDS011;11985;49.404;7.734;2024-01-16T16:00:17;11.88;;;3.60;;
23614;SDS011;11985;49.404;7.734;2024-01-16T16:05:21;7.53;;;2.90;;
23614;SDS011;11985;49.404;7.734;2024-01-16T16:10:23;13.15;;;3.40;;
23614;SDS011;11985;49.404;7.734;2024-01-16T16:15:27;8.80;;;2.75;;
23614;SDS011;11985;49.404;7.734;2024-01-16T16:20:31;9.32;;;2.63;;
23614;SDS011;11985;49.404;7.734;2024-01-16T16:25:34;7.78;;;2.63;;
23614;SDS011;11985;49.404;7.734;2024-01-16T16:30:36;7.68;;;3.42;;
23614;SDS011;11985;49.404;7.734;2024-01-16T16:35:39;11.93;;;4.07;;
23614;SDS011;11985;49.404;7.734;2024-01-16T16:40:41;9.03;;;3.93;;
23614;SDS011;11985;49.404;7.734;2024-01-16T16:45:43;23.60;;;8.88;;
23614;SDS011;11985;49.404;7.734;2024-01-16T16:50:47;12.95;;;5.78;;
23614;SDS011;11985;49.404;7.734;2024-01-16T16:55:48;13.50;;;5.13;;
23614;SDS011;11985;49.404;7.734;2024-01-16T17:00:50;10.13;;;4.57;;
23614;SDS011;11985;49.404;7.734;2024-01-16T17:05:53;12.35;;;4.90;;
23614;SDS011;11985;49.404;7.734;2024-01-16T17:10:54;13.98;;;5.38;;
23614;SDS011;11985;49.404;7.734;2024-01-16T17:15:56;10.27;;;5.07;;
23614;SDS011;11985;49.404;7.734;2024-01-16T17:20:59;9.43;;;4.57;;
23614;SDS011;11985;49.404;7.734;2024-01-16T17:26:01;17.23;;;3.92;;
23614;SDS011;11985;49.404;7.734;2024-01-16T17:31:05;13.90;;;3.45;;
23614;SDS011;11985;49.404;7.734;2024-01-16T17:41:12;8.57;;;3.50;;
23614;SDS011;11985;49.404;7.734;2024-01-16T17:46:14;8.25;;;3.70;;
23614;SDS011;11985;49.404;7.734;2024-01-16T17:51:17;10.18;;;3.67;;
23614;SDS011;11985;49.404;7.734;2024-01-16T17:56:21;11.18;;;4.22;;
23614;SDS011;11985;49.404;7.734;2024-01-16T18:01:25;12.07;;;5.00;;
23614;SDS011;11985;49.404;7.734;2024-01-16T18:06:28;11.35;;;3.25;;
23614;SDS011;11985;49.404;7.734;2024-01-16T18:11:30;7.75;;;3.58;;
23614;SDS011;11985;49.404;7.734;2024-01-16T18:16:31;15.50;;;3.80;;
23614;SDS011;11985;49.404;7.734;2024-01-16T18:21:34;11.27;;;3.53;;
23614;SDS011;11985;49.404;7.734;2024-01-16T18:26:38;8.02;;;3.78;;
23614;SDS011;11985;49.404;7.734;2024-01-16T18:31:40;17.77;;;4.15;;
23614;SDS011;11985;49.404;7.734;2024-01-16T18:36:46;11.82;;;3.33;;
23614;SDS011;11985;49.404;7.734;2024-01-16T18:41:49;8.75;;;3.58;;
23614;SDS011;11985;49.404;7.734;2024-01-16T18:47:00;8.40;;;3.28;;
23614;SDS011;11985;49.404;7.734;2024-01-16T18:52:03;14.68;;;3.60;;
23614;SDS011;11985;49.404;7.734;2024-01-16T18:57:05;7.50;;;2.87;;
23614;SDS011;11985;49.404;7.734;2024-01-16T19:02:07;5.35;;;2.90;;
23614;SDS011;11985;49.404;7.734;2024-01-16T19:07:10;9.75;;;3.63;;
23614;SDS011;11985;49.404;7.734;2024-01-16T19:12:12;7.43;;;3.67;;
23614;SDS011;11985;49.404;7.734;2024-01-16T19:17:14;10.43;;;3.95;;
23614;SDS011;11985;49.404;7.734;2024-01-16T19:22:17;9.68;;;3.95;;
23614;SDS011;11985;49.404;7.734;2024-01-16T19:27:20;7.57;;;3.85;;
23614;SDS011;11985;49.404;7.734;2024-01-16T19:32:25;9.05;;;3.65;;
23614;SDS011;11985;49.404;7.734;2024-01-16T19:37:28;9.32;;;3.25;;
23614;SDS011;11985;49.404;7.734;2024-01-16T19:42:32;14.80;;;3.60;;
23614;SDS011;11985;49.404;7.734;2024-01-16T19:47:34;12.93;;;3.95;;
23614;SDS011;11985;49.404;7.734;2024-01-16T19:52:37;12.85;;;3.30;;
23614;SDS011;11985;49.404;7.734;2024-01-16T19:57:38;16.80;;;5.65;;
23614;SDS011;11985;49.404;7.734;2024-01-16T20:02:41;7.93;;;3.53;;
23614;SDS011;11985;49.404;7.734;2024-01-16T20:07:45;11.73;;;3.55;;
23614;SDS011;11985;49.404;7.734;2024-01-16T20:12:47;11.00;;;3.40;;
23614;SDS011;11985;49.404;7.734;2024-01-16T20:17:49;7.60;;;3.17;;
23614;SDS011;11985;49.404;7.734;2024-01-16T20:22:54;12.05;;;3.47;;
23614;SDS011;11985;49.404;7.734;2024-01-16T20:27:55;11.77;;;3.35;;
23614;SDS011;11985;49.404;7.734;2024-01-16T20:32:58;9.02;;;3.28;;
23614;SDS011;11985;49.404;7.734;2024-01-16T20:38:01;5.63;;;3.20;;
23614;SDS011;11985;49.404;7.734;2024-01-16T20:43:03;10.98;;;2.80;;
23614;SDS011;11985;49.404;7.734;2024-01-16T20:48:04;7.38;;;2.80;;
23614;SDS011;11985;49.404;7.734;2024-01-16T20:53:08;8.18;;;3.40;;
23614;SDS011;11985;49.404;7.734;2024-01-16T20:58:10;8.10;;;3.42;;
23614;SDS011;11985;49.404;7.734;2024-01-16T21:03:12;7.57;;;2.97;;
23614;SDS011;11985;49.404;7.734;2024-01-16T21:08:19;8.52;;;3.42;;
23614;SDS011;11985;49.404;7.734;2024-01-16T21:13:21;9.10;;;5.90;;
23614;SDS011;11985;49.404;7.734;2024-01-16T21:18:24;6.88;;;3.15;;
23614;SDS011;11985;49.404;7.734;2024-01-16T21:23:29;10.05;;;3.85;;
23614;SDS011;11985;49.404;7.734;2024-01-16T21:28:32;10.15;;;3.50;;
23614;SDS011;11985;49.404;7.734;2024-01-16T21:33:34;8.15;;;3.15;;
23614;SDS011;11985;49.404;7.734;2024-01-16T21:38:37;8.93;;;3.80;;
23614;SDS011;11985;49.404;7.734;2024-01-16T21:43:39;10.05;;;3.40;;
23614;SDS011;11985;49.404;7.734;2024-01-16T21:48:41;12.88;;;3.50;;
23614;SDS011;11985;49.404;7.734;2024-01-16T21:53:44;10.88;;;3.25;;
23614;SDS011;11985;49.404;7.734;2024-01-16T21:58:45;10.55;;;3.08;;
23614;SDS011;11985;49.404;7.734;2024-01-16T22:03:47;14.88;;;3.20;;
23614;SDS011;11985;49.404;7.734;2024-01-16T22:08:50;10.23;;;3.15;;
23614;SDS011;11985;49.404;7.734;2024-01-16T22:13:52;11.77;;;4.32;;
23614;SDS011;11985;49.404;7.734;2024-01-16T22:18:54;8.40;;;2.97;;
23614;SDS011;11985;49.404;7.734;2024-01-16T22:23:57;9.35;;;2.58;;
23614;SDS011;11985;49.404;7.734;2024-01-16T22:28:59;8.75;;;2.53;;
23614;SDS011;11985;49.404;7.734;2024-01-16T22:34:01;9.32;;;3.00;;
23614;SDS011;11985;49.404;7.734;2024-01-16T23:29:40;8.55;;;2.92;;
23614;SDS011;11985;49.404;7.734;2024-01-16T23:34:41;10.15;;;3.05;;
23614;SDS011;11985;49.404;7.734;2024-01-16T23:39:42;10.75;;;2.65;;
23614;SDS011;11985;49.404;7.734;2024-01-16T23:49:56;6.75;;;2.78;;
23614;SDS011;11985;49.404;7.734;2024-01-16T23:54:57;4.97;;;2.08;;
23614;SDS011;11985;49.404;7.734;2024-01-16T23:59:59;9.32;;;2.60;;
